Cartersville, Iowa
Current Conditions -  °F | °C
As of 11:53 PM on Saturday 22 Nov 2014 (Local Time) from KMCW Reporting Station
Haze Haze  
Wind Chill: 51°   Ceiling: 800
Heat Index: 51°   Visibility: 5mi
Dew Point: 50°   Wind: 17mph
Humidity: 96%   Direction: 190°S
Pressure: 29.58"   Gusts: 26mph
Location:  43.0122°N, 93.2395°W
Report Text: KMCW 230553Z AUTO 19015G23KT 5SM BR BKN008 OVC013 11/10 A2958 RMK AO2 CIG 006V010 SLP017 T01060100 10106 20017 401060006 55006
Loading
Personal Weather Stations






























Interactive Weather Map New forecast layout! Learn more

10-Day Weather Forecast

Advertisements
Track Severe Weather on mobile